Hovedside
METAR-TAF:

METAR-TAF

Lufthavner :

Sindal, Danmark

breddegrad: 57-30N, lengdegrad: 010-13E, høyde over havet: 28 m

Gjeldene værobservasjon

Denne rapporten ble laget for 14 timer og 45 minutter siden, klokken 13:50 UTC
Vind 21 kt fra Vest med vindkast opp mot 33 kt
Temperatur 7°C
Luftfuktighet 66%
Trykk 997 hPa
Sikt 10 km eller mer
Få skyer i en høyde av 3200 ft

METAR: EKSN 241350Z 28021G33KT 9999 FEW032 07/01 Q0997

Tid: 06:35 (04:35 UTC)

Varsel

Denne rapporten ble laget for 20 timer og 6 minutter siden, klokken 08:29 UTC
Varsel gyldig fra 24. klokken 09 UTC til 24. klokken 15 UTC
Vind 20 kt fra Vest med vindkast opp mot 30 kt
Sikt 10 km eller mer
Brutte skyer i en høyde av 2000 ft
Midlertidig
fra 24. klokken 09 UTC til 24. klokken 15 UTC
Vind 25 kt fra Vest med vindkast opp mot 42 kt

TAF: EKSN 240829Z 2409/2415 26020G30KT 9999 BKN020 TEMPO 2409/2415 27025G42KT

Værobservasjoner og værvarsel for over 4000 flyplasser (METAR- og TAF-rapporter).

Tilgjengelige stasjoner er representert av de røde og gule prikkene på kartet.

Hold musepekeren over prikken for å se navnet på stasjonen.

Klikk så for å se værobservasjoner og -varsler.

For å forandre kartet kan du klikke på den grønne knappen med svart kryss for å zoome inn, på den grønne knappen med strek for å zoome ut, eller på de grønne pilene for å se tilstøtende kart.


METAR-TAF: